Latest Weather Observations for Mangalore

IDV60801

Issued at 10:35 pm EST Thursday 2 October 2014 (issued every 30 minutes, with the page automatically refreshed every 10 minutes)

About weather observations | Map of weather stations | Latest weather observations for VIC | Other Formats
Station Details ID: 088109 Name: MANGALORE AIRPORT Lat: -36.89 Lon: 145.19 Height: 140.8 m
Data from the previous 72 hours. | See also: Recent months at Mangalore
Date/Time
EST
Temp
°C
App
Temp
°C
Dew
Point
Rel
Hum
%
Delta-T
°C
Wind Press
QNH
hPa
Press
MSL
hPa
Rain
since 9 am
mm
Dir
 
Spd
km/h
Gust
km/h
Spd
kts
Gust
kts
02/10:30pm 9.5 7.4 6.8 83 1.3 SW 7 11 4 6 1023.4 1023.4 0.0
02/10:00pm 10.2 7.9 7.3 82 1.4 SW 9 13 5 7 1023.6 1023.6 0.0
02/09:30pm 10.6 7.7 6.6 76 1.9 SSW 11 15 6 8 1023.7 1023.7 0.0
02/09:00pm 11.2 8.3 6.5 73 2.2 S 11 13 6 7 1023.8 1023.8 0.0
02/08:30pm 12.1 8.8 6.4 68 2.7 SSW 13 17 7 9 1023.7 1023.7 0.0
02/08:00pm 12.8 9.5 6.4 65 3.1 SSW 13 20 7 11 1023.5 1023.5 0.0
02/07:30pm 12.4 9.2 6.9 69 2.7 S 13 17 7 9 1023.3 1023.3 0.0
02/07:00pm 12.9 9.6 6.5 65 3.1 S 13 17 7 9 1023.0 1023.0 0.0
02/06:30pm 13.4 10.5 6.5 63 3.3 S 11 17 6 9 1023.0 1023.0 0.0
02/06:00pm 14.5 10.9 6.6 59 3.8 S 15 19 8 10 1022.7 1022.7 0.0
02/05:30pm 15.7 11.3 6.4 54 4.6 S 19 26 10 14 1022.7 1022.7 0.0
02/05:00pm 15.9 11.4 6.3 53 4.7 S 19 26 10 14 1022.5 1022.5 0.0
02/04:30pm 16.5 12.9 6.9 53 4.8 S 15 20 8 11 1022.4 1022.4 0.0
02/04:00pm 17.8 14.1 8.1 53 5.0 SSW 17 24 9 13 1022.4 1022.4 0.0
02/03:30pm 17.3 13.1 7.4 52 5.0 SSW 19 28 10 15 1022.3 1022.3 0.0
02/03:00pm 17.4 13.0 7.2 51 5.1 S 20 28 11 15 1022.5 1022.5 0.0
02/02:30pm 16.5 12.6 6.9 53 4.8 S 17 26 9 14 1022.8 1022.8 0.0
02/02:00pm 16.9 14.0 8.1 56 4.5 SSW 13 20 7 11 1023.1 1023.1 0.0
02/01:30pm 16.7 14.1 7.6 55 4.6 SW 11 19 6 10 1023.3 1023.3 0.0
02/01:00pm 15.0 11.8 6.8 58 4.0 S 13 20 7 11 1023.8 1023.8 0.0
02/12:30pm 15.5 13.2 7.5 59 4.0 SW 9 17 5 9 1024.0 1024.0 0.0
02/12:00pm 15.3 12.4 8.3 63 3.5 S 13 19 7 10 1024.4 1024.4 0.0
02/11:30am 13.8 11.4 7.1 64 3.3 S 9 13 5 7 1024.7 1024.7 0.0
02/11:00am 13.0 9.7 6.6 65 3.1 SSW 13 19 7 10 1025.0 1025.0 0.0
02/10:30am 13.7 10.6 7.2 65 3.2 SSW 13 20 7 11 1025.2 1025.2 0.0
02/10:00am 13.2 10.8 7.0 66 3.0 SSW 9 15 5 8 1025.1 1025.1 0.0
02/09:30am 11.7 9.2 6.6 71 2.4 SSW 9 13 5 7 1025.1 1025.1 0.0
02/09:00am 10.7 8.2 6.6 76 1.9 SSW 9 11 5 6 1025.2 1025.2 0.2
02/08:30am 9.9 7.7 6.2 78 1.7 SSW 7 9 4 5 1025.0 1025.0 0.2
02/08:00am 8.3 6.5 5.6 83 1.2 SSW 4 7 2 4 1025.1 1025.1 0.2
02/07:30am 7.4 6.0 5.7 89 0.8 SSW 2 7 1 4 1025.1 1025.1 0.2
02/07:00am 6.4 5.4 5.4 93 0.4 CALM 0 0 0 0 1024.8 1024.8 0.2
02/06:30am 5.6 4.5 5.3 98 0.1 SSW 0 0 0 0 1024.8 1024.8 0.2
02/06:00am 4.5 2.1 4.1 97 0.2 SSW 6 7 3 4 1024.5 1024.5 0.2
02/05:30am 4.0 1.8 3.6 97 0.2 SSW 4 7 2 4 1024.3 1024.3 0.2
02/05:00am 3.9 2.5 3.3 96 0.2 CALM 0 0 0 0 1024.4 1024.4 0.2
02/04:30am 3.0 1.3 2.0 93 0.4 CALM 0 0 0 0 1024.3 1024.3 0.2
02/04:00am 3.2 1.5 2.0 92 0.5 CALM 0 0 0 0 1024.4 1024.4 0.2
02/03:30am 2.9 0.7 1.0 87 0.7 SSW 2 6 1 3 1024.3 1024.3 0.2
02/03:00am 3.9 0.8 1.6 85 0.9 SSW 7 9 4 5 1024.4 1024.4 0.2
02/02:30am 5.1 2.3 3.1 87 0.8 SSW 7 7 4 4 1024.6 1024.6 0.2
02/02:00am 6.4 3.0 3.9 84 1.1 SSW 11 13 6 7 1024.7 1024.7 0.2
02/01:30am 4.9 1.7 3.1 88 0.7 SSW 9 9 5 5 1024.9 1024.9 0.2
02/01:00am 5.0 2.5 3.5 90 0.6 SSW 6 9 3 5 1025.4 1025.4 0.2
02/12:30am 5.6 2.9 3.9 89 0.7 SSW 7 7 4 4 1025.4 1025.4 0.2
02/12:00am 5.3 3.8 3.2 86 0.9 SSW 0 0 0 0 1025.4 1025.4 0.2
 
Date/Time
EST
Temp
°C
App
Temp
°C
Dew
Point
Rel
Hum
%
Delta-T
°C
Wind Press
QNH
hPa
Press
MSL
hPa
Rain
since 9 am
mm
Dir
 
Spd
km/h
Gust
km/h
Spd
kts
Gust
kts
01/11:30pm 7.0 4.8 3.6 79 1.5 SSW 4 7 2 4 1025.4 1025.4 0.2
01/11:00pm 7.7 4.7 4.3 79 1.5 SSW 9 11 5 6 1025.4 1025.4 0.2
01/10:30pm 7.4 4.4 4.0 79 1.5 SSW 9 11 5 6 1025.5 1025.5 0.2
01/10:00pm 7.9 4.9 4.3 78 1.6 SSW 9 13 5 7 1025.5 1025.5 0.2
01/09:30pm 8.5 5.5 4.1 74 1.9 SSW 9 13 5 7 1025.5 1025.5 0.2
01/09:00pm 8.4 5.4 4.0 74 1.9 SSW 9 11 5 6 1025.5 1025.5 0.2
01/08:30pm 9.6 7.2 4.4 70 2.3 SSW 6 7 3 4 1025.1 1025.1 0.2
01/08:28pm 9.6 7.2 4.4 70 2.3 SSW 6 7 3 4 1025.1 1025.1 0.2
01/08:11pm 10.1 7.6 4.5 68 2.5 SSW 7 9 4 5 1025.0 1025.0 0.2
01/08:00pm 10.1 7.8 4.7 69 2.4 SSW 6 7 3 4 1025.0 1025.0 0.2
01/07:30pm 10.6 7.6 3.9 63 3.0 SSW 9 13 5 7 1024.5 1024.5 0.2
01/07:00pm 11.3 8.3 4.1 61 3.2 S 9 13 5 7 1024.2 1024.2 0.2
01/06:30pm 11.6 8.2 4.1 60 3.4 S 11 15 6 8 1023.9 1023.9 0.2
01/06:00pm 13.4 9.6 3.8 52 4.4 S 13 17 7 9 1023.7 1023.7 0.2
01/05:30pm 13.7 10.0 4.6 54 4.2 S 13 17 7 9 1023.6 1023.6 0.2
01/05:00pm 13.7 10.3 4.0 52 4.4 S 11 17 6 9 1023.3 1023.3 0.2
01/04:30pm 14.7 9.7 3.5 47 5.1 S 19 28 10 15 1023.3 1023.3 0.2
01/04:00pm 14.6 10.7 3.4 47 5.1 SSW 13 17 7 9 1023.2 1023.2 0.2
01/03:30pm 14.2 8.7 1.8 43 5.4 S 20 28 11 15 1023.3 1023.3 0.2
01/03:00pm 14.9 9.5 1.4 40 5.9 SW 19 28 10 15 1022.8 1022.8 0.2
01/02:30pm 16.0 10.5 1.7 38 6.4 S 20 24 11 13 1023.1 1023.1 0.2
01/02:00pm 15.2 9.8 1.4 39 6.0 SSW 19 32 10 17 1023.4 1023.4 0.0
01/01:30pm 15.2 11.2 2.7 43 5.6 SSW 13 22 7 12 1023.5 1023.5 0.0
01/01:00pm 15.1 10.2 2.0 41 5.8 SW 17 28 9 15 1023.6 1023.6 0.0
01/12:30pm 15.1 9.1 0.9 38 6.2 S 22 35 12 19 1023.9 1023.9 0.0
01/12:00pm 14.0 8.0 1.3 42 5.5 S 22 32 12 17 1024.0 1024.0 0.0
01/11:30am 14.4 9.9 2.0 43 5.5 SW 15 17 8 9 1024.2 1024.2 0.0
01/11:00am 13.2 7.1 0.6 42 5.3 S 22 30 12 16 1024.2 1024.2 0.0
01/10:30am 13.4 8.1 2.9 49 4.7 S 20 30 11 16 1024.2 1024.2 0.0
01/10:00am 12.7 7.1 3.4 53 4.2 SW 22 30 12 16 1024.1 1024.1 0.0
01/09:30am 11.7 7.6 4.2 60 3.4 SSW 15 24 8 13 1023.9 1024.1 0.0
01/09:00am 10.6 8.1 4.7 67 2.7 WSW 7 11 4 6 1023.5 1023.6 0.0
01/08:30am 8.8 5.7 3.6 70 2.3 WSW 9 15 5 8 1023.1 1023.2 0.0
01/08:00am 7.8 6.0 3.7 75 1.8 WSW 2 9 1 5 1022.8 1022.9 0.0
01/07:30am 5.8 3.0 3.0 82 1.2 WSW 7 9 4 5 1022.4 1022.5 0.0
01/07:00am 4.8 1.6 2.8 87 0.8 WSW 9 11 5 6 1021.9 1022.0 0.0
01/06:30am 3.6 0.2 1.8 88 0.7 WSW 9 11 5 6 1021.5 1021.6 0.0
01/06:00am 3.0 -0.5 1.5 90 0.6 WSW 9 9 5 5 1021.0 1021.1 0.0
01/05:30am 1.9 -0.1 -0.2 86 0.8 CALM 0 0 0 0 1020.5 1020.6 0.0
01/05:00am 3.4 0.2 0.6 82 1.1 WSW 7 11 4 6 1019.9 1020.0 0.0
01/04:30am 4.5 1.0 1.2 79 1.3 WSW 9 11 5 6 1019.5 1019.6 0.0
01/04:00am 4.4 1.5 1.3 80 1.2 WSW 6 7 3 4 1019.0 1019.1 0.0
01/03:30am 3.7 1.2 1.6 86 0.8 WSW 4 9 2 5 1018.5 1018.7 0.0
01/03:00am 4.1 0.5 0.6 78 1.3 WSW 9 11 5 6 1018.2 1018.4 0.0
01/02:30am 5.3 1.1 1.8 78 1.4 W 13 17 7 9 1017.8 1017.9 0.0
01/02:00am 5.7 1.5 1.8 76 1.6 W 13 17 7 9 1017.4 1017.5 0.0
01/01:30am 6.3 1.4 2.0 74 1.8 WSW 17 19 9 10 1017.2 1017.3 0.0
01/01:00am 6.1 1.9 1.8 74 1.7 WSW 13 17 7 9 1017.1 1017.2 0.0
01/12:30am 6.4 2.6 1.5 71 2.0 WSW 11 13 6 7 1016.9 1017.0 0.0
01/12:00am 7.3 2.7 1.4 66 2.4 SW 15 22 8 12 1016.7 1016.8 0.0
 
Date/Time
EST
Temp
°C
App
Temp
°C
Dew
Point
Rel
Hum
%
Delta-T
°C
Wind Press
QNH
hPa
Press
MSL
hPa
Rain
since 9 am
mm
Dir
 
Spd
km/h
Gust
km/h
Spd
kts
Gust
kts
30/11:30pm 8.1 1.8 1.5 63 2.7 WSW 24 32 13 17 1016.2 1016.3 0.0
30/11:00pm 8.1 2.2 1.9 65 2.6 WSW 22 28 12 15 1015.7 1015.8 0.0
30/10:30pm 8.9 2.7 2.0 62 2.9 WSW 24 33 13 18 1015.3 1015.4 0.0
30/10:00pm 8.1 4.7 2.1 66 2.5 SW 9 17 5 9 1015.2 1015.3 0.0
30/09:30pm 9.0 5.7 2.3 63 2.8 SW 9 13 5 7 1014.8 1014.9 0.0
30/09:00pm 9.7 5.3 2.6 61 3.0 SW 15 20 8 11 1014.5 1014.6 0.0
30/08:30pm 10.0 5.6 2.6 60 3.2 SW 15 24 8 13 1014.0 1014.1 0.0
30/08:00pm 9.8 6.2 3.1 63 2.9 SSW 11 17 6 9 1013.6 1013.7 0.0
30/07:30pm 10.5 6.5 3.1 60 3.2 SW 13 22 7 12 1012.9 1013.0 0.0
30/07:00pm 10.7 5.9 4.4 65 2.8 SSW 19 24 10 13 1012.0 1012.0 0.0
30/06:30pm 10.6 6.3 5.4 70 2.4 SSW 17 28 9 15 1011.5 1011.5 0.0
30/06:00pm 11.0 6.1 7.1 77 1.9 SW 22 43 12 23 1011.5 1011.5 0.0
30/05:30pm 11.8 3.9 7.9 77 1.9 SW 39 61 21 33 1010.2 1010.3 0.0
30/05:08pm 14.5 5.3 8.0 65 3.3 WSW 46 67 25 36 1009.4 1009.5 0.0
30/05:06pm 15.5 5.4 7.5 59 4.0 SW 50 67 27 36 1009.1 1009.2 0.0
30/05:00pm 17.3 8.0 7.6 53 4.9 W 46 65 25 35 1008.2 1008.3 0.0
30/04:41pm 18.6 8.1 7.4 48 5.7 W 52 70 28 38 1007.5 1007.6 0.0
30/04:30pm 20.1 8.8 5.4 38 7.3 WSW 54 70 29 38 1006.6 1006.7 0.0
30/04:00pm 21.7 14.1 3.9 31 8.7 WNW 33 54 18 29 1005.7 1005.7 0.0
30/03:30pm 22.3 13.7 4.4 31 8.8 WNW 39 57 21 31 1005.5 1005.5 0.0
30/03:09pm 22.2 14.3 4.3 31 8.8 NW 35 70 19 38 1005.4 1005.4 0.0
30/03:06pm 22.0 14.9 6.3 36 8.0 NW 33 52 18 28 1005.6 1005.6 0.0
30/03:00pm 22.7 15.5 6.0 34 8.5 NW 33 48 18 26 1005.7 1005.7 0.0
30/02:39pm 23.0 14.4 6.3 34 8.6 NW 41 59 22 32 1005.7 1005.7 0.0
30/02:30pm 22.4 13.2 5.4 33 8.6 NW 43 59 23 32 1005.7 1005.7 0.0
30/02:04pm 23.0 16.0 6.7 35 8.4 NW 33 52 18 28 1005.9 1005.9 0.0
30/02:00pm 22.5 16.0 8.2 40 7.6 NNW 32 44 17 24 1006.1 1006.2 0.0
30/01:39pm 22.0 15.3 8.2 41 7.3 NNW 33 52 18 28 1006.7 1006.8 0.0
30/01:30pm 21.6 15.2 8.5 43 6.9 NNW 32 46 17 25 1007.0 1007.1 0.0
30/01:00pm 21.3 15.6 9.9 48 6.2 NNW 30 39 16 21 1007.6 1007.7 0.0
30/12:30pm 20.0 13.8 9.3 50 5.7 N 32 50 17 27 1008.8 1008.9 0.0
30/12:24pm 19.7 14.1 8.7 49 5.8 N 28 50 15 27 1008.7 1008.8 0.0
30/12:00pm 19.9 15.0 9.8 52 5.4 N 26 37 14 20 1008.8 1008.9 0.0
30/11:40am 19.4 14.1 9.9 54 5.1 N 28 46 15 25 1009.1 1009.2 0.0
30/11:30am 19.7 14.6 10.7 56 4.9 N 28 37 15 20 1009.2 1009.3 0.0
30/11:00am 19.0 13.9 10.6 58 4.6 N 28 37 15 20 1009.8 1009.9 0.0
30/10:30am 18.6 14.6 10.4 59 4.4 NNE 22 35 12 19 1010.3 1010.4 0.0
30/10:00am 17.5 14.0 10.1 62 4.0 NNE 19 26 10 14 1011.1 1011.2 0.0
30/09:30am 16.6 13.9 10.5 67 3.3 N 15 20 8 11 1011.8 1011.8 0.0
30/09:00am 15.6 13.3 10.4 71 2.8 N 13 17 7 9 1012.4 1012.5 0.0
30/08:30am 14.6 13.0 10.2 75 2.3 NNE 9 15 5 8 1012.9 1013.0 0.0
30/08:00am 13.3 11.2 9.7 79 1.9 NNE 11 13 6 7 1013.0 1013.1 0.0
30/07:30am 11.5 9.2 9.1 85 1.2 N 11 15 6 8 1013.0 1013.1 0.0
30/07:00am 9.8 7.1 8.9 94 0.4 N 13 15 7 8 1012.9 1013.0 0.0
30/06:30am 7.2 4.7 6.6 96 0.3 N 9 9 5 5 1012.6 1012.7 0.0
30/06:00am 6.3 3.2 5.4 94 0.4 N 11 11 6 6 1012.2 1012.3 0.0
30/05:30am 6.4 3.5 4.9 90 0.7 N 9 11 5 6 1011.9 1011.9 0.0
30/05:00am 8.3 5.0 6.6 89 0.8 N 13 17 7 9 1011.6 1011.6 0.0
30/04:30am 8.3 5.6 7.2 93 0.5 NNE 11 13 6 7 1011.6 1011.6 0.0
30/04:00am 7.7 4.5 6.8 94 0.4 NNE 13 17 7 9 1011.5 1011.5 0.0
30/03:30am 7.6 4.7 6.5 93 0.5 NNE 11 15 6 8 1010.9 1011.0 0.0
30/03:00am 8.0 5.1 6.5 90 0.7 NNE 11 11 6 6 1011.1 1011.2 0.0
30/02:30am 8.5 5.7 6.8 89 0.8 NNE 11 13 6 7 1011.4 1011.4 0.0
30/02:00am 8.6 5.4 6.9 89 0.8 NNE 13 13 7 7 1011.7 1011.7 0.0
30/01:30am 8.4 5.9 6.4 87 0.9 NNE 9 13 5 7 1012.1 1012.2 0.0
30/01:00am 10.1 7.4 7.5 84 1.3 NE 11 13 6 7 1012.3 1012.4 0.0
30/12:30am 10.7 7.7 7.8 82 1.4 NE 13 15 7 8 1012.7 1012.8 0.0
30/12:00am 10.3 6.9 7.7 84 1.3 NE 15 17 8 9 1012.9 1013.0 0.0
 
Date/Time
EST
Temp
°C
App
Temp
°C
Dew
Point
Rel
Hum
%
Delta-T
°C
Wind Press
QNH
hPa
Press
MSL
hPa
Rain
since 9 am
mm
Dir
 
Spd
km/h
Gust
km/h
Spd
kts
Gust
kts
29/11:30pm 10.7 8.1 7.8 82 1.4 NE 11 13 6 7 1013.3 1013.4 0.0
29/11:00pm 11.4 8.5 8.3 81 1.5 NE 13 15 7 8 1013.7 1013.8 0.0

Other Formats:

Comma delimited format used in spreadsheet applications
http://www.bom.gov.au/fwo/IDV60801/IDV60801.94874.axf

JavaScript Object Notation format (JSON) in row-major order
http://www.bom.gov.au/fwo/IDV60801/IDV60801.94874.json